Latest Weather Observations for Kalgoorlie-Boulder

IDW60801

Issued at 10:35 pm WST Friday 31 October 2014 (issued every 30 minutes, with the page automatically refreshed every 10 minutes)

About weather observations | Map of weather stations | Latest weather observations for WA | Other Formats
Station Details ID: 012038 Name: KALGOORLIE-BOULDER AIRPORT Lat: -30.78 Lon: 121.45 Height: 365.3 m
Data from the previous 72 hours. | See also: Recent months at Kalgoorlie-Boulder
Date/Time
WST
Temp
°C
App
Temp
°C
Dew
Point
Rel
Hum
%
Delta-T
°C
Wind Press
QNH
hPa
Press
MSL
hPa
Rain
since 9 am
mm
Dir
 
Spd
km/h
Gust
km/h
Spd
kts
Gust
kts
31/10:30pm 16.3 10.9 2.3 39 6.4 SE 20 32 11 17 1019.3 - -
31/10:00pm 17.0 10.7 1.8 36 6.9 SE 24 39 13 21 1019.2 - -
31/09:30pm 17.5 12.1 2.3 36 7.0 SE 20 30 11 16 1019.0 - -
31/09:00pm 18.2 12.2 1.3 32 7.7 SE 22 35 12 19 1018.7 1017.7 -
31/08:30pm 18.7 13.1 1.1 30 8.0 SE 20 28 11 15 1018.3 - -
31/08:00pm 19.1 13.6 1.8 31 8.0 SE 20 28 11 15 1017.9 - -
31/07:30pm 19.5 14.1 2.2 31 8.1 SE 20 32 11 17 1017.4 - -
31/07:00pm 20.0 15.8 4.0 34 7.8 SE 15 22 8 12 1016.9 - -
31/06:30pm 20.5 16.0 4.2 34 8.0 SE 17 22 9 12 1016.4 - -
31/06:00pm 21.5 16.8 3.1 29 8.9 SSE 17 24 9 13 1016.0 1015.0 -
31/05:30pm 22.3 17.4 4.2 30 9.0 SE 19 28 10 15 1015.6 - -
31/05:00pm 22.9 18.4 4.3 29 9.3 SSE 17 28 9 15 1015.0 - -
31/04:30pm 23.3 18.1 3.4 27 9.8 SSW 20 24 11 13 1014.7 - -
31/04:00pm 23.2 17.4 4.5 29 9.4 S 24 32 13 17 1014.4 - -
31/03:30pm 23.6 18.2 4.3 28 9.7 SSW 22 33 12 18 1014.3 - -
31/03:00pm 22.8 18.4 4.7 30 9.1 SSW 17 28 9 15 1014.3 1013.3 0.0
31/02:30pm 23.1 18.7 4.7 30 9.3 SW 17 22 9 12 1014.2 - -
31/02:00pm 22.2 17.0 5.5 33 8.5 S 22 33 12 18 1014.3 - -
31/01:30pm 23.5 17.9 5.3 30 9.3 SW 24 32 13 17 1014.3 - -
31/01:00pm 23.0 17.3 5.1 31 9.1 S 24 32 13 17 1014.5 - -
31/12:30pm 21.9 16.4 5.9 35 8.2 S 24 39 13 21 1014.7 - -
31/12:00pm 22.4 17.3 5.8 34 8.5 SSW 22 33 12 18 1014.7 1013.6 -
31/11:30am 22.2 17.6 5.5 33 8.5 SSW 19 33 10 18 1014.5 - -
31/11:00am 21.7 17.3 6.4 37 7.9 SSW 19 33 10 18 1014.7 - -
31/10:30am 20.4 15.0 6.3 40 7.2 SSW 24 32 13 17 1014.5 - 0.0
31/10:00am 20.1 14.6 6.1 40 7.1 SSW 24 33 13 18 1014.8 - 0.0
31/09:30am 19.9 14.1 6.1 40 7.0 SSW 26 35 14 19 1014.5 - 0.0
31/09:00am 19.3 14.4 6.8 44 6.4 SSW 22 33 12 18 1014.2 1013.2 0.2
31/08:30am 18.4 13.5 7.1 47 5.8 S 22 35 12 19 1014.0 - 0.2
31/08:00am 17.3 12.8 8.7 57 4.5 S 22 32 12 17 1014.1 - 0.2
31/07:30am 17.4 13.6 9.7 60 4.1 S 20 32 11 17 1013.8 - 0.2
31/07:00am 16.1 12.3 9.7 66 3.4 S 20 24 11 13 1013.6 - 0.2
31/06:30am 15.4 12.1 9.7 69 3.0 S 17 24 9 13 1013.3 - 0.2
31/06:00am 15.2 11.6 9.7 69 2.9 SSW 19 24 10 13 1012.9 1011.8 0.2
31/05:30am 14.8 11.6 9.9 72 2.6 S 17 22 9 12 1012.5 - 0.2
31/05:00am 14.3 10.1 9.9 75 2.3 S 22 28 12 15 1011.9 - 0.2
31/04:30am 14.9 10.5 10.4 74 2.4 SSW 24 32 13 17 1011.4 - 0.2
31/04:00am 16.0 13.0 12.0 77 2.2 SSW 19 26 10 14 1010.8 - 0.2
31/03:30am 16.9 13.4 12.1 73 2.7 S 22 28 12 15 1010.3 - 0.2
31/03:00am 18.5 15.1 10.7 60 4.3 SSW 19 24 10 13 1010.0 1008.9 0.2
31/02:30am 19.6 14.8 7.5 45 6.3 SW 22 30 12 16 1009.7 - 0.2
31/02:00am 20.2 15.4 7.4 43 6.7 SW 22 33 12 18 1009.5 - 0.2
31/01:30am 21.1 16.6 6.9 39 7.4 SW 20 32 11 17 1009.4 - 0.2
31/01:00am 21.7 16.0 6.7 37 7.8 SW 26 33 14 18 1009.4 - 0.2
31/12:30am 22.7 16.2 6.6 35 8.4 SW 30 44 16 24 1009.5 - 0.2
31/12:12am 23.3 17.2 6.5 34 8.8 SW 28 48 15 26 1009.6 - 0.2
31/12:00am 23.5 18.3 7.1 35 8.7 SW 24 33 13 18 1009.5 1008.4 0.2
 
Date/Time
WST
Temp
°C
App
Temp
°C
Dew
Point
Rel
Hum
%
Delta-T
°C
Wind Press
QNH
hPa
Press
MSL
hPa
Rain
since 9 am
mm
Dir
 
Spd
km/h
Gust
km/h
Spd
kts
Gust
kts
30/11:30pm 24.0 19.1 6.8 33 9.1 WSW 22 33 12 18 1009.5 - 0.2
30/11:00pm 24.7 20.0 5.9 30 9.8 WSW 20 28 11 15 1009.4 - 0.2
30/10:30pm 25.1 20.5 5.7 28 10.1 WSW 19 28 10 15 1009.2 - 0.2
30/10:00pm 25.7 21.0 5.3 27 10.6 WSW 19 24 10 13 1009.2 - 0.2
30/09:30pm 26.3 21.5 5.5 26 10.9 WSW 20 28 11 15 1009.1 - 0.2
30/09:00pm 26.3 22.3 6.6 28 10.5 WSW 17 20 9 11 1009.0 1007.9 0.2
30/08:30pm 26.8 23.4 7.5 29 10.5 WSW 15 20 8 11 1008.9 - 0.2
30/08:00pm 27.5 23.7 7.5 28 10.9 WSW 17 22 9 12 1008.4 - 0.2
30/07:30pm 28.0 24.8 8.4 29 10.9 WSW 15 20 8 11 1008.1 - 0.2
30/07:00pm 28.7 25.4 8.2 27 11.4 WSW 15 22 8 12 1007.8 - 0.2
30/06:30pm 29.5 25.7 7.6 25 12.1 SW 17 20 9 11 1007.4 - 0.2
30/06:00pm 30.6 25.6 6.3 21 13.2 SW 22 30 12 16 1007.0 1005.9 0.2
30/05:30pm 32.0 27.1 5.3 18 14.4 WSW 20 30 11 16 1006.7 - 0.2
30/05:00pm 32.1 27.0 6.1 19 14.2 WSW 22 33 12 18 1006.5 - 0.2
30/04:30pm 32.6 27.7 5.2 18 14.8 W 20 33 11 18 1006.5 - 0.2
30/04:00pm 33.8 28.8 4.7 16 15.6 WSW 20 30 11 16 1006.5 - 0.2
30/03:30pm 34.5 28.8 5.1 16 16.0 W 24 37 13 20 1006.7 - 0.2
30/03:00pm 34.4 28.8 5.6 16 15.8 W 24 37 13 20 1007.0 1005.9 0.2
30/02:30pm 33.8 28.5 5.0 16 15.6 WNW 22 32 12 17 1007.2 - 0.2
30/02:00pm 33.0 27.6 6.3 19 14.7 W 24 37 13 20 1007.6 - 0.2
30/01:30pm 33.1 28.9 8.3 21 14.1 WSW 20 26 11 14 1008.0 - 0.2
30/01:00pm 32.8 29.4 9.1 23 13.6 NW 17 24 9 13 1008.6 - 0.2
30/12:30pm 32.3 29.2 10.4 26 12.8 WNW 17 30 9 16 1009.2 - 0.2
30/12:00pm 30.6 27.9 10.5 29 11.7 N 15 24 8 13 1009.7 1008.6 0.2
30/11:30am 29.6 27.6 11.4 32 10.7 NW 13 24 7 13 1010.2 - 0.2
30/11:00am 28.9 25.5 10.5 31 10.6 N 19 28 10 15 1010.7 - 0.2
30/10:30am 28.5 25.7 11.4 34 10.0 N 17 26 9 14 1011.2 - 0.2
30/10:00am 25.4 24.9 13.9 49 6.9 N 9 13 5 7 1011.8 - 0.2
30/09:30am 23.2 22.2 15.5 62 4.7 NNW 15 20 8 11 1012.3 - 0.0
30/09:00am 20.5 19.3 15.0 70 3.3 NNE 15 20 8 11 1012.1 1011.0 2.6
30/08:38am 17.8 14.1 14.9 83 1.7 ENE 28 33 15 18 1012.3 - 2.6
30/08:30am 18.3 18.1 14.7 79 2.1 NE 9 13 5 7 1013.6 - 1.2
30/08:00am 19.3 18.8 12.6 65 3.8 E 7 13 4 7 1013.7 - 0.0
30/07:57am 19.0 18.8 12.9 67 3.5 SSE 6 9 3 5 1013.9 - 0.0
30/07:30am 18.9 18.0 12.6 67 3.6 SSE 9 13 5 7 1013.7 - 0.0
30/07:00am 18.9 16.4 12.2 65 3.8 SSW 17 22 9 12 1014.1 - 0.0
30/06:30am 18.6 17.3 12.6 68 3.4 S 11 17 6 9 1014.4 - 0.0
30/06:00am 17.9 16.8 13.2 74 2.7 SSW 11 15 6 8 1014.8 1013.7 0.0
30/05:30am 17.2 16.6 13.4 78 2.2 SSW 9 13 5 7 1014.7 - 0.0
30/05:00am 16.9 14.5 12.8 77 2.3 SSW 17 24 9 13 1014.1 - 0.0
30/04:30am 17.5 13.7 12.5 72 2.8 SSW 24 35 13 19 1013.7 - 0.0
30/04:00am 18.5 16.2 14.2 76 2.5 SSW 19 24 10 13 1012.7 - 0.0
30/03:30am 19.3 17.8 14.2 72 3.0 SSW 15 19 8 10 1012.1 - 0.0
30/03:00am 19.3 19.1 12.9 66 3.7 W 6 7 3 4 1011.4 1010.4 0.0
30/02:30am 20.3 20.2 13.2 63 4.1 WSW 6 7 3 4 1011.0 - 0.0
30/02:00am 21.9 22.2 13.4 58 5.0 N 4 7 2 4 1010.8 - 0.0
30/01:30am 22.3 21.1 12.8 55 5.5 N 11 15 6 8 1010.8 - 0.0
30/01:00am 22.6 21.9 13.2 55 5.5 N 9 13 5 7 1011.0 - 0.0
30/12:30am 22.8 21.8 13.3 55 5.6 NNW 11 17 6 9 1011.8 - 0.0
30/12:00am 23.3 21.4 13.1 52 6.0 N 15 20 8 11 1011.3 1010.3 0.0
 
Date/Time
WST
Temp
°C
App
Temp
°C
Dew
Point
Rel
Hum
%
Delta-T
°C
Wind Press
QNH
hPa
Press
MSL
hPa
Rain
since 9 am
mm
Dir
 
Spd
km/h
Gust
km/h
Spd
kts
Gust
kts
29/11:30pm 23.5 21.6 12.9 51 6.2 N 15 20 8 11 1011.8 - 0.0
29/11:00pm 23.6 21.2 12.6 50 6.4 N 17 22 9 12 1012.3 - 0.0
29/10:30pm 23.6 21.2 12.8 50 6.3 N 17 24 9 13 1012.3 - 0.0
29/10:00pm 24.4 21.3 12.2 46 7.1 N 20 32 11 17 1012.7 - 0.0
29/09:30pm 23.4 21.3 12.4 50 6.4 NNE 15 20 8 11 1012.7 - 0.0
29/09:00pm 23.8 20.8 12.0 47 6.8 NNE 19 24 10 13 1012.9 1011.8 0.0
29/08:30pm 24.8 21.9 10.9 41 7.9 NE 17 24 9 13 1012.7 - 0.0
29/08:00pm 25.7 22.8 9.6 36 9.0 NE 15 20 8 11 1012.4 - 0.0
29/07:30pm 26.3 22.3 9.0 33 9.6 ENE 20 30 11 16 1012.4 - 0.0
29/07:00pm 25.1 23.3 10.7 40 8.2 ENE 11 15 6 8 1012.6 - 0.0
29/06:30pm 23.5 21.1 13.7 54 5.8 ESE 19 24 10 13 1012.2 - 0.0
29/06:00pm 23.9 22.6 13.8 53 6.0 SE 13 20 7 11 1012.0 1010.9 0.0
29/05:30pm 24.0 21.2 13.1 50 6.4 S 20 30 11 16 1012.1 - 0.0
29/05:00pm 22.1 18.9 15.3 65 4.1 SSW 26 35 14 19 1012.7 - 0.0
29/04:57pm 21.9 18.5 15.8 68 3.7 SSW 28 35 15 19 1013.1 - 0.0
29/04:52pm 21.5 16.7 15.7 69 3.5 WSW 35 54 19 29 1013.4 - 0.0
29/04:44pm 21.9 15.5 15.5 67 3.9 WSW 43 54 23 29 1013.5 - 0.0
29/04:41pm 22.9 12.8 14.6 59 5.0 W 61 89 33 48 1013.2 - 0.0
29/04:33pm 28.3 16.7 8.3 28 11.1 WNW 59 89 32 48 1011.8 - 0.0
29/04:31pm 31.0 24.6 5.1 19 13.8 WNW 28 78 15 42 1011.9 - 0.0
29/04:30pm 32.6 26.7 3.7 16 15.2 NW 24 32 13 17 1011.6 - 0.0
29/04:00pm 32.9 29.1 3.7 16 15.4 N 13 24 7 13 1009.7 - 0.0
29/03:00pm 34.2 28.9 2.9 14 16.4 NNE 20 32 11 17 1009.5 1008.4 0.0
29/02:30pm 34.9 29.1 2.3 13 17.0 NNE 22 30 12 16 1009.8 - 0.0
29/02:00pm 35.5 30.3 2.2 12 17.4 NNE 19 28 10 15 1010.2 - 0.0
29/01:30pm 33.8 28.4 2.4 14 16.3 NNE 20 32 11 17 1010.8 - 0.0
29/01:00pm 34.5 30.1 2.5 13 16.7 N 15 28 8 15 1011.2 - 0.0
29/12:30pm 33.9 28.5 1.4 13 16.6 N 19 26 10 14 1011.8 - 0.0
29/12:00pm 32.2 27.0 2.4 15 15.3 NE 19 30 10 16 1012.2 - 0.0
29/11:30am 31.2 26.3 2.0 15 14.8 NE 17 22 9 12 1012.6 - 0.0
29/11:00am 29.7 26.6 3.5 19 13.5 N 9 15 5 8 1013.6 - 0.0
29/10:30am 29.2 25.4 1.6 17 13.7 NW 11 19 6 10 1014.5 - 0.0
29/10:00am 30.1 23.6 0.2 14 14.6 N 24 35 13 19 1013.4 - 0.0
29/09:30am 29.0 23.7 -0.4 15 14.1 NNE 17 24 9 13 1013.7 - 0.0
29/09:00am 28.9 23.0 -0.7 14 14.1 NNE 20 28 11 15 1014.1 1013.1 0.0
29/08:30am 28.7 22.7 -1.2 14 14.1 NE 20 28 11 15 1014.1 - 0.0
29/08:00am 26.8 21.4 -1.6 15 13.1 NE 17 26 9 14 1014.2 - 0.0
29/07:30am 25.8 20.3 -1.8 16 12.6 NE 17 26 9 14 1014.3 - 0.0
29/07:00am 24.7 20.2 -0.6 19 11.7 NE 13 17 7 9 1014.8 - 0.0
29/06:30am 24.0 20.3 -0.1 20 11.2 NE 9 15 5 8 1015.0 - 0.0
29/06:00am 23.1 19.6 1.4 24 10.3 ENE 9 13 5 7 1015.0 1013.9 0.0
29/05:30am 22.8 19.9 2.5 26 9.8 NE 7 11 4 6 1014.9 - 0.0
29/04:00am 23.9 19.9 0.4 21 11.0 ENE 11 15 6 8 1014.3 - 0.0
29/03:30am 23.8 19.9 1.3 22 10.7 ENE 11 15 6 8 1014.1 - 0.0
29/03:00am 23.8 20.0 1.7 23 10.6 E 11 15 6 8 1013.9 1012.9 0.0
29/02:30am 23.7 20.1 2.9 25 10.2 ENE 11 15 6 8 1013.8 - 0.0
29/02:00am 24.3 20.4 1.3 22 11.0 ENE 11 17 6 9 1014.0 - 0.0
29/01:30am 24.4 21.2 2.9 24 10.6 ENE 9 13 5 7 1014.2 - 0.0
29/01:00am 25.3 19.7 0.0 19 11.9 ENE 19 26 10 14 1013.9 - 0.0
29/12:30am 25.3 20.5 0.3 19 11.8 ENE 15 26 8 14 1014.0 - 0.0
29/12:00am 25.6 20.9 1.0 20 11.8 ENE 15 26 8 14 1014.7 1013.6 0.0
 
Date/Time
WST
Temp
°C
App
Temp
°C
Dew
Point
Rel
Hum
%
Delta-T
°C
Wind Press
QNH
hPa
Press
MSL
hPa
Rain
since 9 am
mm
Dir
 
Spd
km/h
Gust
km/h
Spd
kts
Gust
kts
28/11:30pm 25.6 21.0 1.7 21 11.6 E 15 28 8 15 1014.5 - 0.0
28/11:00pm 25.9 20.5 1.2 20 11.9 E 19 26 10 14 1014.5 - 0.0

Other Formats:

Comma delimited format used in spreadsheet applications
http://www.bom.gov.au/fwo/IDW60801/IDW60801.94637.axf

JavaScript Object Notation format (JSON) in row-major order
http://www.bom.gov.au/fwo/IDW60801/IDW60801.94637.json